sensor_id;sensor_type;location;lat;lon;timestamp;pressure;altitude;pressure_sealevel;temperature;humidity
55171;BME280;41060;47.510;8.680;2023-11-18T00:00:59;98015.38;;;8.03;54.70
55171;BME280;41060;47.510;8.680;2023-11-18T00:03:27;98013.03;;;7.98;54.46
55171;BME280;41060;47.510;8.680;2023-11-18T00:05:54;98008.34;;;8.04;54.16
55171;BME280;41060;47.510;8.680;2023-11-18T00:08:20;98013.19;;;7.95;54.95
55171;BME280;41060;47.510;8.680;2023-11-18T00:10:50;98007.91;;;7.95;54.53
55171;BME280;41060;47.510;8.680;2023-11-18T00:13:16;98008.16;;;7.91;54.51
55171;BME280;41060;47.510;8.680;2023-11-18T00:15:43;98016.25;;;7.72;55.13
55171;BME280;41060;47.510;8.680;2023-11-18T00:18:11;98016.38;;;7.69;55.26
55171;BME280;41060;47.510;8.680;2023-11-18T00:20:42;98018.63;;;7.77;55.04
55171;BME280;41060;47.510;8.680;2023-11-18T00:23:09;98007.56;;;7.70;55.06
55171;BME280;41060;47.510;8.680;2023-11-18T00:25:36;98018.25;;;7.67;55.17
55171;BME280;41060;47.510;8.680;2023-11-18T00:28:05;98015.88;;;7.45;55.73
55171;BME280;41060;47.510;8.680;2023-11-18T00:30:32;98015.94;;;7.11;56.41
55171;BME280;41060;47.510;8.680;2023-11-18T00:32:59;98012.13;;;7.16;56.33
55171;BME280;41060;47.510;8.680;2023-11-18T00:35:28;98009.59;;;6.98;56.83
55171;BME280;41060;47.510;8.680;2023-11-18T00:37:58;98015.84;;;6.95;57.08
55171;BME280;41060;47.510;8.680;2023-11-18T00:40:25;97982.69;;;6.39;58.83
55171;BME280;41060;47.510;8.680;2023-11-18T00:42:55;98008.22;;;6.55;59.09
55171;BME280;41060;47.510;8.680;2023-11-18T00:45:21;98015.75;;;6.62;59.23
55171;BME280;41060;47.510;8.680;2023-11-18T00:47:48;98023.28;;;6.87;58.34
55171;BME280;41060;47.510;8.680;2023-11-18T00:50:15;98029.69;;;6.99;57.97
55171;BME280;41060;47.510;8.680;2023-11-18T00:52:42;98028.94;;;7.14;57.60
55171;BME280;41060;47.510;8.680;2023-11-18T00:55:14;98022.97;;;7.28;57.24
55171;BME280;41060;47.510;8.680;2023-11-18T00:57:43;98028.44;;;7.40;57.05
55171;BME280;41060;47.510;8.680;2023-11-18T01:00:12;98035.78;;;7.51;56.65
55171;BME280;41060;47.510;8.680;2023-11-18T01:02:40;98033.50;;;7.60;55.87
55171;BME280;41060;47.510;8.680;2023-11-18T01:05:07;98026.31;;;7.64;55.90
55171;BME280;41060;47.510;8.680;2023-11-18T01:07:37;98031.28;;;7.70;55.76
55171;BME280;41060;47.510;8.680;2023-11-18T01:10:04;98029.16;;;7.77;55.68
55171;BME280;41060;47.510;8.680;2023-11-18T01:12:33;98038.69;;;7.79;55.83
55171;BME280;41060;47.510;8.680;2023-11-18T01:15:00;98036.72;;;7.83;55.77
55171;BME280;41060;47.510;8.680;2023-11-18T01:17:31;98035.72;;;7.85;55.98
55171;BME280;41060;47.510;8.680;2023-11-18T01:19:57;98036.41;;;7.89;56.22
55171;BME280;41060;47.510;8.680;2023-11-18T01:22:24;98033.34;;;7.96;55.82
55171;BME280;41060;47.510;8.680;2023-11-18T01:24:51;98036.16;;;7.93;55.67
55171;BME280;41060;47.510;8.680;2023-11-18T01:27:17;98036.84;;;7.97;55.39
55171;BME280;41060;47.510;8.680;2023-11-18T01:29:46;98040.31;;;7.97;55.58
55171;BME280;41060;47.510;8.680;2023-11-18T01:32:13;98038.47;;;7.99;55.43
55171;BME280;41060;47.510;8.680;2023-11-18T01:34:39;98041.19;;;7.98;55.79
55171;BME280;41060;47.510;8.680;2023-11-18T01:37:09;98041.00;;;7.85;56.12
55171;BME280;41060;47.510;8.680;2023-11-18T01:39:36;98041.50;;;7.76;56.23
55171;BME280;41060;47.510;8.680;2023-11-18T01:42:03;98035.22;;;7.61;56.31
55171;BME280;41060;47.510;8.680;2023-11-18T01:44:33;98050.31;;;7.25;56.62
55171;BME280;41060;47.510;8.680;2023-11-18T01:47:02;97997.09;;;7.01;56.83
55171;BME280;41060;47.510;8.680;2023-11-18T01:49:32;98039.47;;;7.31;56.99
55171;BME280;41060;47.510;8.680;2023-11-18T01:52:05;98048.34;;;7.29;57.01
55171;BME280;41060;47.510;8.680;2023-11-18T01:54:33;98053.88;;;7.07;57.24
55171;BME280;41060;47.510;8.680;2023-11-18T01:57:00;98058.13;;;6.92;57.62
55171;BME280;41060;47.510;8.680;2023-11-18T01:59:31;98053.56;;;6.96;57.34
55171;BME280;41060;47.510;8.680;2023-11-18T02:01:59;98046.00;;;6.90;57.86
55171;BME280;41060;47.510;8.680;2023-11-18T02:04:28;98050.22;;;6.92;57.26
55171;BME280;41060;47.510;8.680;2023-11-18T02:06:56;98049.94;;;6.98;57.17
55171;BME280;41060;47.510;8.680;2023-11-18T02:09:24;98047.06;;;7.03;57.17
55171;BME280;41060;47.510;8.680;2023-11-18T02:11:57;98050.50;;;7.05;57.01
55171;BME280;41060;47.510;8.680;2023-11-18T02:14:31;98040.63;;;7.08;56.99
55171;BME280;41060;47.510;8.680;2023-11-18T02:16:59;98030.81;;;7.12;56.62
55171;BME280;41060;47.510;8.680;2023-11-18T02:19:30;98034.03;;;7.00;56.59
55171;BME280;41060;47.510;8.680;2023-11-18T02:22:00;98027.53;;;6.72;57.00
55171;BME280;41060;47.510;8.680;2023-11-18T02:24:28;98024.13;;;6.70;56.53
55171;BME280;41060;47.510;8.680;2023-11-18T02:26:58;98024.97;;;6.71;57.36
55171;BME280;41060;47.510;8.680;2023-11-18T02:29:33;98016.63;;;6.80;56.75
55171;BME280;41060;47.510;8.680;2023-11-18T02:32:09;98019.50;;;6.75;56.79
55171;BME280;41060;47.510;8.680;2023-11-18T02:34:40;98019.41;;;6.77;56.77
55171;BME280;41060;47.510;8.680;2023-11-18T02:37:11;98015.75;;;6.62;57.01
55171;BME280;41060;47.510;8.680;2023-11-18T02:39:39;98017.34;;;6.48;56.92
55171;BME280;41060;47.510;8.680;2023-11-18T02:42:10;98010.56;;;6.43;57.47
55171;BME280;41060;47.510;8.680;2023-11-18T02:44:42;98025.72;;;6.20;58.05
55171;BME280;41060;47.510;8.680;2023-11-18T02:47:10;98029.03;;;6.06;58.60
55171;BME280;41060;47.510;8.680;2023-11-18T02:49:37;98029.59;;;5.94;59.79
55171;BME280;41060;47.510;8.680;2023-11-18T02:52:05;98028.59;;;5.96;60.17
55171;BME280;41060;47.510;8.680;2023-11-18T02:54:31;98026.53;;;6.03;59.34
55171;BME280;41060;47.510;8.680;2023-11-18T02:56:58;98026.81;;;5.97;58.71
55171;BME280;41060;47.510;8.680;2023-11-18T02:59:27;98023.81;;;6.04;58.68
55171;BME280;41060;47.510;8.680;2023-11-18T03:01:55;98015.50;;;6.14;57.79
55171;BME280;41060;47.510;8.680;2023-11-18T03:04:22;98018.56;;;6.23;57.41
55171;BME280;41060;47.510;8.680;2023-11-18T03:06:49;98005.72;;;6.34;57.08
55171;BME280;41060;47.510;8.680;2023-11-18T03:09:16;97993.78;;;6.46;56.77
55171;BME280;41060;47.510;8.680;2023-11-18T03:11:44;97998.31;;;6.42;56.88
55171;BME280;41060;47.510;8.680;2023-11-18T03:14:11;98001.66;;;6.46;56.72
55171;BME280;41060;47.510;8.680;2023-11-18T03:16:39;98011.88;;;6.52;56.44
55171;BME280;41060;47.510;8.680;2023-11-18T03:19:05;98011.34;;;6.45;56.15
55171;BME280;41060;47.510;8.680;2023-11-18T03:21:34;98013.94;;;6.28;56.67
55171;BME280;41060;47.510;8.680;2023-11-18T03:24:02;98024.75;;;6.22;56.53
55171;BME280;41060;47.510;8.680;2023-11-18T03:26:28;98025.91;;;6.17;56.41
55171;BME280;41060;47.510;8.680;2023-11-18T03:28:57;98025.59;;;6.23;56.74
55171;BME280;41060;47.510;8.680;2023-11-18T03:31:24;98028.06;;;6.26;56.55
55171;BME280;41060;47.510;8.680;2023-11-18T03:33:52;98009.88;;;6.21;56.39
55171;BME280;41060;47.510;8.680;2023-11-18T03:36:19;98014.22;;;6.22;56.54
55171;BME280;41060;47.510;8.680;2023-11-18T03:38:46;97997.59;;;6.22;56.56
55171;BME280;41060;47.510;8.680;2023-11-18T03:41:17;97995.38;;;6.31;56.41
55171;BME280;41060;47.510;8.680;2023-11-18T03:43:45;97988.09;;;6.36;56.15
55171;BME280;41060;47.510;8.680;2023-11-18T03:46:13;97997.47;;;6.42;56.14
55171;BME280;41060;47.510;8.680;2023-11-18T03:48:40;98004.75;;;6.37;56.42
55171;BME280;41060;47.510;8.680;2023-11-18T03:51:14;98007.56;;;6.32;55.83
55171;BME280;41060;47.510;8.680;2023-11-18T03:53:44;98008.81;;;6.25;55.77
55171;BME280;41060;47.510;8.680;2023-11-18T03:56:16;98023.34;;;6.15;56.18
55171;BME280;41060;47.510;8.680;2023-11-18T03:58:45;98014.94;;;6.07;56.18
55171;BME280;41060;47.510;8.680;2023-11-18T04:01:19;98017.50;;;5.90;57.21
55171;BME280;41060;47.510;8.680;2023-11-18T04:03:46;98013.09;;;5.90;57.59
55171;BME280;41060;47.510;8.680;2023-11-18T04:06:14;98016.56;;;5.72;57.75
55171;BME280;41060;47.510;8.680;2023-11-18T04:08:43;98021.88;;;5.71;57.57
55171;BME280;41060;47.510;8.680;2023-11-18T04:11:10;98021.09;;;5.50;57.68
55171;BME280;41060;47.510;8.680;2023-11-18T04:13:37;98026.00;;;5.37;57.93
55171;BME280;41060;47.510;8.680;2023-11-18T04:16:04;98020.34;;;5.27;58.53
55171;BME280;41060;47.510;8.680;2023-11-18T04:18:31;98002.94;;;5.25;58.90
55171;BME280;41060;47.510;8.680;2023-11-18T04:20:58;98007.38;;;5.23;59.46
55171;BME280;41060;47.510;8.680;2023-11-18T04:23:26;98000.75;;;5.35;58.50
55171;BME280;41060;47.510;8.680;2023-11-18T04:25:52;98007.13;;;5.29;57.85
55171;BME280;41060;47.510;8.680;2023-11-18T04:28:19;98000.66;;;5.36;57.27
55171;BME280;41060;47.510;8.680;2023-11-18T04:30:46;98001.88;;;5.29;57.21
55171;BME280;41060;47.510;8.680;2023-11-18T04:33:13;98004.47;;;5.10;58.03
55171;BME280;41060;47.510;8.680;2023-11-18T04:35:40;98001.53;;;4.98;57.96
55171;BME280;41060;47.510;8.680;2023-11-18T04:38:06;98010.81;;;4.84;58.15
55171;BME280;41060;47.510;8.680;2023-11-18T04:40:34;98018.16;;;4.76;58.36
55171;BME280;41060;47.510;8.680;2023-11-18T04:43:04;98022.81;;;4.70;59.52
55171;BME280;41060;47.510;8.680;2023-11-18T04:45:31;98023.91;;;4.64;59.45
55171;BME280;41060;47.510;8.680;2023-11-18T04:47:57;97997.66;;;4.44;60.20
55171;BME280;41060;47.510;8.680;2023-11-18T04:50:25;98030.44;;;4.54;60.03
55171;BME280;41060;47.510;8.680;2023-11-18T04:52:51;98026.69;;;4.61;59.58
55171;BME280;41060;47.510;8.680;2023-11-18T04:55:18;98033.97;;;4.75;59.14
55171;BME280;41060;47.510;8.680;2023-11-18T04:57:46;98034.84;;;4.75;58.66
55171;BME280;41060;47.510;8.680;2023-11-18T05:00:16;98038.31;;;4.76;58.59
55171;BME280;41060;47.510;8.680;2023-11-18T05:02:45;98035.28;;;4.85;58.07
55171;BME280;41060;47.510;8.680;2023-11-18T05:05:16;98032.22;;;4.96;57.92
55171;BME280;41060;47.510;8.680;2023-11-18T05:07:45;98033.72;;;5.01;57.57
55171;BME280;41060;47.510;8.680;2023-11-18T05:10:14;98031.91;;;5.03;58.15
55171;BME280;41060;47.510;8.680;2023-11-18T05:12:41;98029.28;;;5.03;58.30
55171;BME280;41060;47.510;8.680;2023-11-18T05:15:10;98031.63;;;4.89;58.19
55171;BME280;41060;47.510;8.680;2023-11-18T05:17:41;98022.00;;;4.89;59.18
55171;BME280;41060;47.510;8.680;2023-11-18T05:20:07;98015.22;;;5.04;58.19
55171;BME280;41060;47.510;8.680;2023-11-18T05:22:39;98000.84;;;5.13;58.19
55171;BME280;41060;47.510;8.680;2023-11-18T05:25:06;98003.06;;;5.22;58.28
55171;BME280;41060;47.510;8.680;2023-11-18T05:27:35;98001.03;;;5.08;58.24
55171;BME280;41060;47.510;8.680;2023-11-18T05:30:03;98006.94;;;4.93;59.35
55171;BME280;41060;47.510;8.680;2023-11-18T05:32:32;98014.03;;;4.91;59.47
55171;BME280;41060;47.510;8.680;2023-11-18T05:34:58;98006.03;;;4.94;58.90
55171;BME280;41060;47.510;8.680;2023-11-18T05:37:26;98011.88;;;5.01;58.66
55171;BME280;41060;47.510;8.680;2023-11-18T05:39:54;98011.94;;;4.99;58.16
55171;BME280;41060;47.510;8.680;2023-11-18T05:42:32;98005.50;;;5.06;58.04
55171;BME280;41060;47.510;8.680;2023-11-18T05:44:58;98001.03;;;5.08;58.17
55171;BME280;41060;47.510;8.680;2023-11-18T05:47:25;98000.34;;;5.05;58.46
55171;BME280;41060;47.510;8.680;2023-11-18T05:49:54;98007.19;;;5.07;58.23
55171;BME280;41060;47.510;8.680;2023-11-18T05:52:20;98007.19;;;5.07;58.34
55171;BME280;41060;47.510;8.680;2023-11-18T05:54:47;98007.41;;;5.03;58.11
55171;BME280;41060;47.510;8.680;2023-11-18T05:57:14;98021.25;;;5.06;58.18
55171;BME280;41060;47.510;8.680;2023-11-18T05:59:41;98004.41;;;5.12;58.44
55171;BME280;41060;47.510;8.680;2023-11-18T06:02:08;98003.28;;;4.97;58.80
55171;BME280;41060;47.510;8.680;2023-11-18T06:04:39;98005.19;;;4.73;59.12
55171;BME280;41060;47.510;8.680;2023-11-18T06:07:08;97993.72;;;4.54;59.88
55171;BME280;41060;47.510;8.680;2023-11-18T06:09:35;97993.41;;;4.62;59.67
55171;BME280;41060;47.510;8.680;2023-11-18T06:12:02;97995.59;;;4.52;59.24
55171;BME280;41060;47.510;8.680;2023-11-18T06:14:37;97998.97;;;4.54;59.44
55171;BME280;41060;47.510;8.680;2023-11-18T06:17:04;98006.78;;;4.56;59.22
55171;BME280;41060;47.510;8.680;2023-11-18T06:19:32;98006.75;;;4.35;59.39
55171;BME280;41060;47.510;8.680;2023-11-18T06:21:59;98014.97;;;4.26;59.72
55171;BME280;41060;47.510;8.680;2023-11-18T06:24:27;98010.25;;;4.14;59.81
55171;BME280;41060;47.510;8.680;2023-11-18T06:26:54;98012.66;;;4.19;60.06
55171;BME280;41060;47.510;8.680;2023-11-18T06:29:20;98013.03;;;4.09;59.92
55171;BME280;41060;47.510;8.680;2023-11-18T06:31:49;98016.31;;;3.93;60.40
55171;BME280;41060;47.510;8.680;2023-11-18T06:34:16;98019.72;;;3.95;61.15
55171;BME280;41060;47.510;8.680;2023-11-18T06:36:43;98015.13;;;4.01;60.21
55171;BME280;41060;47.510;8.680;2023-11-18T06:39:10;98017.25;;;4.13;60.05
55171;BME280;41060;47.510;8.680;2023-11-18T06:41:39;98011.75;;;4.20;59.99
55171;BME280;41060;47.510;8.680;2023-11-18T06:44:14;98009.13;;;4.20;59.91
55171;BME280;41060;47.510;8.680;2023-11-18T06:46:43;98023.97;;;4.21;59.82
55171;BME280;41060;47.510;8.680;2023-11-18T06:49:10;98031.88;;;4.19;60.63
55171;BME280;41060;47.510;8.680;2023-11-18T06:51:41;98030.09;;;4.20;60.16
55171;BME280;41060;47.510;8.680;2023-11-18T06:54:10;98026.81;;;4.15;60.52
55171;BME280;41060;47.510;8.680;2023-11-18T06:56:43;98029.44;;;4.15;60.19
55171;BME280;41060;47.510;8.680;2023-11-18T06:59:10;98022.13;;;4.23;60.97
55171;BME280;41060;47.510;8.680;2023-11-18T07:01:38;98010.91;;;4.19;60.98
55171;BME280;41060;47.510;8.680;2023-11-18T07:04:06;98029.09;;;4.24;60.81
55171;BME280;41060;47.510;8.680;2023-11-18T07:06:35;98021.44;;;4.39;60.84
55171;BME280;41060;47.510;8.680;2023-11-18T07:09:06;98014.47;;;4.60;59.78
55171;BME280;41060;47.510;8.680;2023-11-18T07:11:40;98018.81;;;4.61;59.86
55171;BME280;41060;47.510;8.680;2023-11-18T07:14:07;98035.19;;;4.46;60.47
55171;BME280;41060;47.510;8.680;2023-11-18T07:16:34;98004.56;;;4.25;61.07
55171;BME280;41060;47.510;8.680;2023-11-18T07:19:02;98031.25;;;4.34;60.74
55171;BME280;41060;47.510;8.680;2023-11-18T07:21:28;98036.94;;;4.24;61.65
55171;BME280;41060;47.510;8.680;2023-11-18T07:23:58;98037.00;;;4.22;61.33
55171;BME280;41060;47.510;8.680;2023-11-18T07:26:25;98036.16;;;4.22;61.53
55171;BME280;41060;47.510;8.680;2023-11-18T07:28:53;98050.91;;;4.24;61.49
55171;BME280;41060;47.510;8.680;2023-11-18T07:31:20;98046.09;;;4.13;62.29
55171;BME280;41060;47.510;8.680;2023-11-18T07:33:48;98052.72;;;4.00;62.39
55171;BME280;41060;47.510;8.680;2023-11-18T07:36:16;98053.03;;;4.36;65.76
55171;BME280;41060;47.510;8.680;2023-11-18T07:38:41;98023.84;;;4.45;63.89
55171;BME280;41060;47.510;8.680;2023-11-18T07:41:09;98052.94;;;4.81;62.15
55171;BME280;41060;47.510;8.680;2023-11-18T07:43:46;98044.44;;;4.97;61.42
55171;BME280;41060;47.510;8.680;2023-11-18T07:46:18;98043.94;;;5.07;61.16
55171;BME280;41060;47.510;8.680;2023-11-18T07:48:47;98058.00;;;4.86;60.63
55171;BME280;41060;47.510;8.680;2023-11-18T07:51:15;98055.94;;;4.72;61.15
55171;BME280;41060;47.510;8.680;2023-11-18T07:53:41;98051.81;;;4.67;61.50
55171;BME280;41060;47.510;8.680;2023-11-18T07:56:10;98047.59;;;4.63;61.40
55171;BME280;41060;47.510;8.680;2023-11-18T07:58:38;98052.53;;;4.48;62.19
55171;BME280;41060;47.510;8.680;2023-11-18T08:01:06;98063.38;;;4.39;62.79
55171;BME280;41060;47.510;8.680;2023-11-18T08:03:35;98058.41;;;4.33;62.77
55171;BME280;41060;47.510;8.680;2023-11-18T08:06:04;98048.09;;;4.29;62.68
55171;BME280;41060;47.510;8.680;2023-11-18T08:08:32;98044.44;;;4.33;62.57
55171;BME280;41060;47.510;8.680;2023-11-18T08:10:58;98033.47;;;4.45;62.83
55171;BME280;41060;47.510;8.680;2023-11-18T08:13:26;98033.53;;;4.43;62.92
55171;BME280;41060;47.510;8.680;2023-11-18T08:15:53;98032.00;;;4.38;63.57
55171;BME280;41060;47.510;8.680;2023-11-18T08:18:19;98045.84;;;4.41;63.55
55171;BME280;41060;47.510;8.680;2023-11-18T08:20:48;98042.41;;;4.39;63.50
55171;BME280;41060;47.510;8.680;2023-11-18T08:23:15;98039.63;;;4.44;63.27
55171;BME280;41060;47.510;8.680;2023-11-18T08:25:41;98047.34;;;4.47;63.42
55171;BME280;41060;47.510;8.680;2023-11-18T08:28:09;98052.97;;;4.60;63.88
55171;BME280;41060;47.510;8.680;2023-11-18T08:30:37;98054.31;;;4.48;63.80
55171;BME280;41060;47.510;8.680;2023-11-18T08:33:06;98053.44;;;4.47;64.26
55171;BME280;41060;47.510;8.680;2023-11-18T08:35:34;98049.75;;;4.53;63.63
55171;BME280;41060;47.510;8.680;2023-11-18T08:38:02;98052.56;;;4.69;63.47
55171;BME280;41060;47.510;8.680;2023-11-18T08:40:29;98049.19;;;4.67;63.45
55171;BME280;41060;47.510;8.680;2023-11-18T08:42:56;98045.56;;;4.69;63.44
55171;BME280;41060;47.510;8.680;2023-11-18T08:45:24;98041.66;;;4.79;62.90
55171;BME280;41060;47.510;8.680;2023-11-18T08:47:53;98038.81;;;4.84;63.37
55171;BME280;41060;47.510;8.680;2023-11-18T08:50:21;98033.53;;;5.06;62.61
55171;BME280;41060;47.510;8.680;2023-11-18T08:52:49;98031.31;;;5.36;62.40
55171;BME280;41060;47.510;8.680;2023-11-18T08:55:20;98024.81;;;5.64;61.69
55171;BME280;41060;47.510;8.680;2023-11-18T08:57:49;98022.94;;;5.87;61.23
55171;BME280;41060;47.510;8.680;2023-11-18T09:00:24;98017.09;;;5.99;60.87
55171;BME280;41060;47.510;8.680;2023-11-18T09:03:08;98016.84;;;6.03;60.76
55171;BME280;41060;47.510;8.680;2023-11-18T09:05:42;98018.00;;;5.79;61.34
55171;BME280;41060;47.510;8.680;2023-11-18T09:08:26;98014.75;;;5.73;62.17
55171;BME280;41060;47.510;8.680;2023-11-18T09:10:56;98007.28;;;5.84;62.01
55171;BME280;41060;47.510;8.680;2023-11-18T09:13:25;97993.22;;;5.85;61.61
55171;BME280;41060;47.510;8.680;2023-11-18T09:15:55;98001.25;;;5.82;62.03
55171;BME280;41060;47.510;8.680;2023-11-18T09:18:23;97999.72;;;5.95;62.32
55171;BME280;41060;47.510;8.680;2023-11-18T09:20:51;97996.06;;;5.99;62.16
55171;BME280;41060;47.510;8.680;2023-11-18T09:23:23;97993.13;;;6.05;63.25
55171;BME280;41060;47.510;8.680;2023-11-18T09:25:51;97998.44;;;6.22;62.21
55171;BME280;41060;47.510;8.680;2023-11-18T09:28:24;97992.25;;;6.23;62.91
55171;BME280;41060;47.510;8.680;2023-11-18T09:30:57;97975.25;;;6.30;62.83
55171;BME280;41060;47.510;8.680;2023-11-18T09:33:26;97980.34;;;6.33;62.52
55171;BME280;41060;47.510;8.680;2023-11-18T09:35:55;97975.81;;;6.54;62.07
55171;BME280;41060;47.510;8.680;2023-11-18T09:38:25;97970.09;;;6.63;62.13
55171;BME280;41060;47.510;8.680;2023-11-18T09:40:55;97981.41;;;6.65;61.72
55171;BME280;41060;47.510;8.680;2023-11-18T09:43:24;97980.41;;;6.68;61.92
55171;BME280;41060;47.510;8.680;2023-11-18T09:45:54;97984.66;;;6.70;62.16
55171;BME280;41060;47.510;8.680;2023-11-18T09:48:22;97994.56;;;6.82;61.45
55171;BME280;41060;47.510;8.680;2023-11-18T09:50:52;97996.66;;;6.76;61.72
55171;BME280;41060;47.510;8.680;2023-11-18T09:53:20;98004.56;;;6.76;61.47
55171;BME280;41060;47.510;8.680;2023-11-18T09:55:59;98010.28;;;6.84;61.95
55171;BME280;41060;47.510;8.680;2023-11-18T09:58:40;97990.31;;;6.97;62.21
55171;BME280;41060;47.510;8.680;2023-11-18T10:01:10;97994.06;;;7.26;61.42
55171;BME280;41060;47.510;8.680;2023-11-18T10:03:43;97995.13;;;7.39;61.16
55171;BME280;41060;47.510;8.680;2023-11-18T10:06:12;97986.25;;;7.57;60.15
55171;BME280;41060;47.510;8.680;2023-11-18T10:08:40;97989.69;;;7.58;60.30
55171;BME280;41060;47.510;8.680;2023-11-18T10:11:12;97993.94;;;7.45;61.18
55171;BME280;41060;47.510;8.680;2023-11-18T10:13:40;97985.59;;;7.37;61.47
55171;BME280;41060;47.510;8.680;2023-11-18T10:16:09;97995.91;;;7.41;61.33
55171;BME280;41060;47.510;8.680;2023-11-18T10:18:39;97996.34;;;7.49;61.01
55171;BME280;41060;47.510;8.680;2023-11-18T10:21:14;97989.88;;;7.55;60.77
55171;BME280;41060;47.510;8.680;2023-11-18T10:23:58;97991.53;;;7.57;60.77
55171;BME280;41060;47.510;8.680;2023-11-18T10:26:27;97992.06;;;7.47;60.42
55171;BME280;41060;47.510;8.680;2023-11-18T10:29:02;97984.94;;;7.49;60.98
55171;BME280;41060;47.510;8.680;2023-11-18T10:31:32;97988.56;;;7.63;60.22
55171;BME280;41060;47.510;8.680;2023-11-18T10:34:01;97975.38;;;7.63;61.06
55171;BME280;41060;47.510;8.680;2023-11-18T10:36:29;97985.97;;;7.79;60.41
55171;BME280;41060;47.510;8.680;2023-11-18T10:38:58;97974.16;;;7.86;59.60
55171;BME280;41060;47.510;8.680;2023-11-18T10:41:39;97976.09;;;7.83;59.73
55171;BME280;41060;47.510;8.680;2023-11-18T10:44:09;97974.88;;;7.88;59.42
55171;BME280;41060;47.510;8.680;2023-11-18T10:46:41;97969.53;;;7.90;59.68
55171;BME280;41060;47.510;8.680;2023-11-18T10:49:18;97972.19;;;7.90;59.36
55171;BME280;41060;47.510;8.680;2023-11-18T10:51:46;97972.69;;;7.96;59.03
55171;BME280;41060;47.510;8.680;2023-11-18T10:54:13;97981.38;;;7.98;58.93
55171;BME280;41060;47.510;8.680;2023-11-18T10:56:49;97975.59;;;8.08;58.33
55171;BME280;41060;47.510;8.680;2023-11-18T10:59:17;97890.66;;;7.54;58.67
55171;BME280;41060;47.510;8.680;2023-11-18T11:01:45;97986.66;;;8.14;58.20
55171;BME280;41060;47.510;8.680;2023-11-18T11:04:15;97986.22;;;8.22;58.67
55171;BME280;41060;47.510;8.680;2023-11-18T11:06:48;97966.81;;;8.07;57.66
55171;BME280;41060;47.510;8.680;2023-11-18T11:09:18;97994.63;;;8.28;58.16
55171;BME280;41060;47.510;8.680;2023-11-18T11:11:53;97993.00;;;8.26;58.54
55171;BME280;41060;47.510;8.680;2023-11-18T11:14:23;97985.72;;;8.31;58.57
55171;BME280;41060;47.510;8.680;2023-11-18T11:17:05;97987.06;;;8.22;58.23
55171;BME280;41060;47.510;8.680;2023-11-18T11:19:46;97976.69;;;8.19;58.07
55171;BME280;41060;47.510;8.680;2023-11-18T11:22:20;97961.47;;;8.09;58.44
55171;BME280;41060;47.510;8.680;2023-11-18T11:25:02;97983.66;;;8.20;58.92
55171;BME280;41060;47.510;8.680;2023-11-18T11:27:41;97979.03;;;8.39;58.08
55171;BME280;41060;47.510;8.680;2023-11-18T11:30:21;97972.06;;;8.38;58.15
55171;BME280;41060;47.510;8.680;2023-11-18T11:32:52;97982.22;;;8.30;58.28
55171;BME280;41060;47.510;8.680;2023-11-18T11:35:23;97988.22;;;8.32;58.65
55171;BME280;41060;47.510;8.680;2023-11-18T11:37:52;97987.56;;;8.29;58.30
55171;BME280;41060;47.510;8.680;2023-11-18T11:40:21;97987.13;;;8.36;58.36
55171;BME280;41060;47.510;8.680;2023-11-18T11:42:51;97985.28;;;8.38;57.86
55171;BME280;41060;47.510;8.680;2023-11-18T11:45:25;97981.06;;;8.50;58.15
55171;BME280;41060;47.510;8.680;2023-11-18T11:47:59;97949.34;;;8.36;58.32
55171;BME280;41060;47.510;8.680;2023-11-18T11:50:48;97952.03;;;8.50;58.23
55171;BME280;41060;47.510;8.680;2023-11-18T11:53:21;97946.53;;;8.39;58.30
55171;BME280;41060;47.510;8.680;2023-11-18T11:55:50;97951.06;;;8.37;58.32
55171;BME280;41060;47.510;8.680;2023-11-18T11:58:28;97942.16;;;8.54;58.24
55171;BME280;41060;47.510;8.680;2023-11-18T12:01:00;97938.19;;;8.47;58.58
55171;BME280;41060;47.510;8.680;2023-11-18T12:03:27;97933.50;;;8.36;58.52
55171;BME280;41060;47.510;8.680;2023-11-18T12:06:02;97939.50;;;8.24;59.17
55171;BME280;41060;47.510;8.680;2023-11-18T12:08:34;97945.28;;;8.30;58.84
55171;BME280;41060;47.510;8.680;2023-11-18T12:11:03;97951.81;;;8.39;58.08
55171;BME280;41060;47.510;8.680;2023-11-18T12:13:35;97946.84;;;8.49;58.09
55171;BME280;41060;47.510;8.680;2023-11-18T12:16:07;97938.06;;;8.48;58.07
55171;BME280;41060;47.510;8.680;2023-11-18T12:18:35;97941.44;;;8.36;58.48
55171;BME280;41060;47.510;8.680;2023-11-18T12:21:05;97940.75;;;8.32;58.52
55171;BME280;41060;47.510;8.680;2023-11-18T12:24:16;97939.16;;;8.30;58.89
55171;BME280;41060;47.510;8.680;2023-11-18T12:26:46;97934.47;;;8.19;58.13
55171;BME280;41060;47.510;8.680;2023-11-18T12:29:31;97928.19;;;8.22;58.34
55171;BME280;41060;47.510;8.680;2023-11-18T12:32:00;97929.97;;;8.06;59.31
55171;BME280;41060;47.510;8.680;2023-11-18T12:34:49;97933.97;;;8.13;59.16
55171;BME280;41060;47.510;8.680;2023-11-18T12:37:35;97935.41;;;8.18;59.79
55171;BME280;41060;47.510;8.680;2023-11-18T12:40:24;97945.34;;;8.29;59.60
55171;BME280;41060;47.510;8.680;2023-11-18T12:43:00;97938.44;;;8.42;59.31
55171;BME280;41060;47.510;8.680;2023-11-18T12:45:52;97926.84;;;8.45;58.65
55171;BME280;41060;47.510;8.680;2023-11-18T12:48:27;97929.56;;;8.43;59.20
55171;BME280;41060;47.510;8.680;2023-11-18T12:51:01;97926.00;;;8.44;58.84
55171;BME280;41060;47.510;8.680;2023-11-18T12:53:28;97919.28;;;8.38;58.84
55171;BME280;41060;47.510;8.680;2023-11-18T12:55:57;97909.63;;;8.53;58.59
55171;BME280;41060;47.510;8.680;2023-11-18T12:58:24;97903.75;;;8.48;58.70
55171;BME280;41060;47.510;8.680;2023-11-18T13:00:51;97900.69;;;8.70;58.82
55171;BME280;41060;47.510;8.680;2023-11-18T13:03:18;97891.59;;;8.75;57.82
55171;BME280;41060;47.510;8.680;2023-11-18T13:05:49;97894.50;;;8.85;57.50
55171;BME280;41060;47.510;8.680;2023-11-18T13:08:17;97888.19;;;8.88;57.50
55171;BME280;41060;47.510;8.680;2023-11-18T13:10:48;97893.84;;;8.82;57.75
55171;BME280;41060;47.510;8.680;2023-11-18T13:13:15;97887.78;;;8.65;58.10
55171;BME280;41060;47.510;8.680;2023-11-18T13:15:48;97895.59;;;8.53;58.23
55171;BME280;41060;47.510;8.680;2023-11-18T13:18:16;97892.38;;;8.32;59.05
55171;BME280;41060;47.510;8.680;2023-11-18T13:20:57;97893.34;;;8.31;58.94
55171;BME280;41060;47.510;8.680;2023-11-18T13:23:25;97891.03;;;8.25;59.39